Terminal Aerodrome Forecast
Issued by NWS Duluth, MN

Home | Current Version | Previous Version | Graphics & Text | Print | Product List | Glossary On
Versions: 1 2 3 4 5 6 7 8 9 10 11 12 13 14 15 16 17 18 19 20 21 22 23 24 25 26 27 28
292
FTUS43 KDLH 241359 AAC
TAFDLH
TAF AMD
KDLH 241359Z 2414/2512 14008KT 3/4SM BR VV002
     FM241430 14008KT 2SM BR BKN003
     FM241500 15008KT P6SM SCT005 SCT250
     FM241700 18012KT P6SM SCT250
     FM250300 15010KT 6SM -SHRA SCT050 BKN100
     FM251000 VRB05KT 4SM -RA BR SCT005 BKN020=

USA.gov is the U.S. government's official web portal to all federal, state and local government web resources and services.